Time;durP1;ratioP1;P1;durP2;ratioP2;P2;SDS_P1;SDS_P2;PMS_P1;PMS_P2;Temp;Humidity;BMP_temperature;BMP_pressure;BME280_temperature;BME280_humidity;BME280_pressure;Samples;Min_cycle;Max_cycle;Signal;HPM_P1;HPM_P2
2023/10/23 04:06:15;;;;;;;0.30;0.30;;;6.20;99.90;;;;;;5346983;23;20231;-62
2023/10/23 04:08:41;;;;;;;0.30;0.27;;;6.20;99.90;;;;;;4975063;28;20180;-62
2023/10/23 04:11:07;;;;;;;0.30;0.30;;;6.20;99.90;;;;;;4977579;28;20181;-61
2023/10/23 04:13:34;;;;;;;0.30;0.30;;;6.20;99.90;;;;;;4977732;28;20766;-62
2023/10/23 04:16:02;;;;;;;0.30;0.30;;;6.10;99.90;;;;;;4977374;28;20207;-62
2023/10/23 04:18:27;;;;;;;0.30;0.30;;;6.20;99.90;;;;;;4977956;28;20176;-63
2023/10/23 04:21:10;;;;;;;0.30;0.30;;;6.10;99.90;;;;;;4977751;28;20698;-62
2023/10/23 04:23:37;;;;;;;0.30;0.30;;;6.10;99.90;;;;;;4977517;28;20183;-63
2023/10/23 04:26:03;;;;;;;0.30;0.30;;;6.10;99.90;;;;;;4977122;28;20198;-63
2023/10/23 04:28:30;;;;;;;0.30;0.30;;;6.10;99.90;;;;;;4977702;28;20186;-62
2023/10/23 04:30:56;;;;;;;0.30;0.30;;;6.10;99.90;;;;;;4977547;28;20177;-62
2023/10/23 04:33:22;;;;;;;0.40;0.40;;;6.10;99.90;;;;;;4977605;28;20259;-63
2023/10/23 04:35:57;;;;;;;0.30;0.30;;;6.00;99.90;;;;;;4976123;28;20211;-63
2023/10/23 04:38:26;;;;;;;0.40;0.40;;;6.00;99.90;;;;;;4977658;28;20437;-62
2023/10/23 04:40:55;;;;;;;0.40;0.40;;;6.00;99.90;;;;;;4976606;28;20624;-63
2023/10/23 04:43:21;;;;;;;0.30;0.20;;;6.00;99.90;;;;;;4976268;28;20259;-63
2023/10/23 04:45:48;;;;;;;0.30;0.30;;;5.90;99.90;;;;;;4975501;28;20196;-63
2023/10/23 04:48:14;;;;;;;0.30;0.30;;;5.90;99.90;;;;;;4975454;28;20176;-63
2023/10/23 04:50:40;;;;;;;0.40;0.40;;;5.90;99.90;;;;;;4975595;28;20649;-61
2023/10/23 04:53:06;;;;;;;0.30;0.30;;;5.90;99.90;;;;;;4975753;28;20947;-62
2023/10/23 04:55:33;;;;;;;0.30;0.30;;;5.90;99.90;;;;;;4975174;28;20936;-61
2023/10/23 04:57:59;;;;;;;0.40;0.40;;;5.90;99.90;;;;;;4977246;28;20179;-62
2023/10/23 05:00:25;;;;;;;0.40;0.40;;;5.90;99.90;;;;;;4975962;28;20287;-63
2023/10/23 05:02:50;;;;;;;0.80;0.80;;;5.90;99.90;;;;;;4976346;28;20247;-63
2023/10/23 05:05:16;;;;;;;0.40;0.40;;;5.80;99.90;;;;;;4976174;28;20221;-62
2023/10/23 05:07:42;;;;;;;0.40;0.40;;;5.80;99.90;;;;;;4976881;28;20188;-63
2023/10/23 05:10:09;;;;;;;0.30;0.30;;;5.80;99.90;;;;;;4967012;28;20191;-61
2023/10/23 05:12:38;;;;;;;0.30;0.30;;;5.80;99.90;;;;;;4966679;28;20201;-61
2023/10/23 05:15:05;;;;;;;0.30;0.30;;;5.80;99.90;;;;;;4975100;28;20238;-62
2023/10/23 05:17:31;;;;;;;0.30;0.30;;;5.80;99.90;;;;;;4974024;28;20540;-62
2023/10/23 05:19:57;;;;;;;0.30;0.30;;;5.80;99.90;;;;;;4962383;28;20275;-62
2023/10/23 05:22:23;;;;;;;0.30;0.30;;;5.70;99.90;;;;;;4976606;28;20559;-62
2023/10/23 05:24:49;;;;;;;0.40;0.40;;;5.70;99.90;;;;;;4976186;28;20199;-62
2023/10/23 05:27:16;;;;;;;0.40;0.40;;;5.80;99.90;;;;;;4976665;28;20406;-62
2023/10/23 05:29:41;;;;;;;0.35;0.35;;;5.80;99.90;;;;;;4976490;28;20772;-62
2023/10/23 05:32:07;;;;;;;0.40;0.40;;;5.80;99.90;;;;;;4975687;28;20187;-62
2023/10/23 05:34:33;;;;;;;0.30;0.30;;;5.80;99.90;;;;;;4975443;28;20184;-61
2023/10/23 05:36:59;;;;;;;0.40;0.40;;;5.80;99.90;;;;;;4976400;28;20538;-60
2023/10/23 05:39:25;;;;;;;0.40;0.40;;;5.70;99.90;;;;;;4976327;28;20230;-60
2023/10/23 05:41:51;;;;;;;0.30;0.30;;;5.60;99.90;;;;;;4976106;28;20200;-60
2023/10/23 05:44:16;;;;;;;0.87;0.87;;;5.60;99.90;;;;;;4975734;28;20412;-60
2023/10/23 05:46:42;;;;;;;0.40;0.40;;;5.70;99.90;;;;;;4975019;28;20279;-61
2023/10/23 05:49:08;;;;;;;0.30;0.30;;;5.60;99.90;;;;;;4975303;28;20238;-61
2023/10/23 05:51:33;;;;;;;0.40;0.40;;;5.60;99.90;;;;;;4974885;28;20219;-61
2023/10/23 05:53:59;;;;;;;0.40;0.40;;;5.60;99.90;;;;;;4963893;28;20190;-61
2023/10/23 05:56:24;;;;;;;0.30;0.30;;;5.60;99.90;;;;;;4960863;28;20210;-61
2023/10/23 05:58:50;;;;;;;0.40;0.40;;;5.60;99.90;;;;;;4975178;28;20175;-61
2023/10/23 06:01:16;;;;;;;0.32;0.32;;;5.70;99.90;;;;;;4975117;28;20166;-61
2023/10/23 06:03:42;;;;;;;0.40;0.40;;;5.70;99.90;;;;;;4974877;28;20200;-62
2023/10/23 06:06:08;;;;;;;0.30;0.30;;;5.60;99.90;;;;;;4962672;28;20256;-60
2023/10/23 06:08:34;;;;;;;0.30;0.20;;;5.70;99.90;;;;;;4956356;28;20188;-62
2023/10/23 06:11:00;;;;;;;0.60;0.60;;;5.70;99.90;;;;;;4956366;29;20211;-62
2023/10/23 06:13:26;;;;;;;0.30;0.30;;;5.70;99.90;;;;;;4956929;28;20202;-61
2023/10/23 06:15:52;;;;;;;0.40;0.40;;;5.70;99.90;;;;;;4968835;28;20461;-62
2023/10/23 06:18:18;;;;;;;0.30;0.30;;;5.70;99.90;;;;;;4975501;28;20180;-66
2023/10/23 06:20:44;;;;;;;0.33;0.33;;;5.80;99.90;;;;;;4975200;28;20702;-62
2023/10/23 06:23:09;;;;;;;0.30;0.30;;;5.80;99.90;;;;;;4973853;28;20184;-66
2023/10/23 06:25:35;;;;;;;0.40;0.40;;;5.80;99.90;;;;;;4974977;28;20188;-62
2023/10/23 06:28:02;;;;;;;0.30;0.30;;;5.90;99.90;;;;;;4975370;28;20174;-62
2023/10/23 06:30:28;;;;;;;0.30;0.30;;;6.00;99.90;;;;;;4973234;28;20186;-62
2023/10/23 06:32:54;;;;;;;0.30;0.30;;;6.00;99.90;;;;;;4975259;28;20193;-61
2023/10/23 06:35:20;;;;;;;0.30;0.30;;;6.10;99.90;;;;;;4973987;28;20454;-61
2023/10/23 06:37:47;;;;;;;0.30;0.30;;;6.10;99.90;;;;;;4974917;28;20184;-61
2023/10/23 06:40:12;;;;;;;0.30;0.30;;;6.10;99.90;;;;;;4969662;28;20234;-62
2023/10/23 06:42:38;;;;;;;0.30;0.30;;;6.10;99.90;;;;;;4974120;28;20204;-60
2023/10/23 06:45:05;;;;;;;0.30;0.30;;;6.10;99.90;;;;;;4971275;28;20439;-62
2023/10/23 06:47:30;;;;;;;0.30;0.30;;;6.20;99.90;;;;;;4973888;28;20184;-61
2023/10/23 06:49:56;;;;;;;0.30;0.30;;;6.20;99.90;;;;;;4974720;28;20227;-61
2023/10/23 06:52:21;;;;;;;0.40;0.40;;;6.30;99.90;;;;;;4967277;28;20180;-61
2023/10/23 06:54:47;;;;;;;0.30;0.30;;;6.40;99.90;;;;;;4973172;28;20198;-61
2023/10/23 06:57:12;;;;;;;0.40;0.40;;;6.50;99.90;;;;;;4969810;28;20642;-61
2023/10/23 06:59:38;;;;;;;0.33;0.33;;;6.70;99.90;;;;;;4973100;28;20207;-62
2023/10/23 07:02:04;;;;;;;0.30;0.30;;;6.80;99.90;;;;;;4972984;28;20228;-62
2023/10/23 07:04:30;;;;;;;0.30;0.30;;;7.00;99.90;;;;;;4972267;28;20277;-60
2023/10/23 07:07:04;;;;;;;0.30;0.20;;;7.10;99.90;;;;;;4972710;28;20191;-62
2023/10/23 07:09:31;;;;;;;0.30;0.30;;;7.20;99.90;;;;;;4976899;28;20207;-62
2023/10/23 07:11:56;;;;;;;0.30;0.30;;;7.30;99.90;;;;;;4960271;28;20180;-61
2023/10/23 07:14:22;;;;;;;0.40;0.40;;;7.40;99.90;;;;;;4964053;28;20180;-61
2023/10/23 07:16:48;;;;;;;0.53;0.53;;;7.40;99.90;;;;;;4974924;28;20443;-61
2023/10/23 07:19:14;;;;;;;0.30;0.30;;;7.40;99.90;;;;;;4973359;28;20192;-60
2023/10/23 07:21:40;;;;;;;0.30;0.30;;;7.50;99.90;;;;;;4972514;28;20217;-61
2023/10/23 07:24:06;;;;;;;0.30;0.30;;;7.50;99.90;;;;;;4973246;28;20206;-61
2023/10/23 07:26:31;;;;;;;0.30;0.30;;;7.50;99.90;;;;;;4972991;28;20199;-61
2023/10/23 07:28:57;;;;;;;0.70;0.60;;;7.40;99.90;;;;;;4972390;28;20611;-61
2023/10/23 07:31:22;;;;;;;0.30;0.30;;;7.50;99.90;;;;;;4972945;28;20172;-61
2023/10/23 07:33:50;;;;;;;0.30;0.30;;;7.50;99.90;;;;;;4978264;28;20175;-62
2023/10/23 07:36:15;;;;;;;0.30;0.30;;;7.60;99.90;;;;;;4977087;28;20223;-60
2023/10/23 07:38:44;;;;;;;0.30;0.30;;;7.70;99.90;;;;;;4972970;28;20587;-62
2023/10/23 07:41:10;;;;;;;0.82;0.82;;;7.70;99.90;;;;;;4973126;28;20685;-61
2023/10/23 07:43:36;;;;;;;0.30;0.30;;;7.90;99.90;;;;;;4973310;28;20202;-62
2023/10/23 07:46:06;;;;;;;0.30;0.30;;;8.00;99.90;;;;;;4967201;28;20196;-61
2023/10/23 07:48:32;;;;;;;1.60;1.50;;;8.10;99.90;;;;;;4958270;29;20259;-61
2023/10/23 07:50:59;;;;;;;0.30;0.30;;;8.30;99.90;;;;;;4972057;28;20420;-60
2023/10/23 07:53:25;;;;;;;0.40;0.40;;;8.50;99.90;;;;;;4975544;28;20180;-61
2023/10/23 07:55:51;;;;;;;0.30;0.30;;;8.70;99.90;;;;;;4975657;28;20285;-61
2023/10/23 07:58:17;;;;;;;0.30;0.30;;;9.00;99.90;;;;;;4976943;28;20631;-62
2023/10/23 08:00:43;;;;;;;0.30;0.30;;;9.20;99.90;;;;;;4973782;28;20223;-63
2023/10/23 08:03:09;;;;;;;0.32;0.32;;;9.40;99.90;;;;;;4970603;28;20181;-61
2023/10/23 08:05:35;;;;;;;0.50;0.50;;;9.70;99.90;;;;;;4975191;28;20205;-61
2023/10/23 08:08:01;;;;;;;0.30;0.27;;;9.90;99.90;;;;;;4967573;28;20189;-61
2023/10/23 08:10:27;;;;;;;0.30;0.20;;;9.90;99.90;;;;;;4963015;28;20420;-61
2023/10/23 08:12:53;;;;;;;0.30;0.30;;;10.00;99.90;;;;;;4977616;28;20700;-61
2023/10/23 08:15:18;;;;;;;0.30;0.30;;;10.10;99.90;;;;;;4976933;28;20435;-61
2023/10/23 08:17:44;;;;;;;0.30;0.30;;;10.20;99.90;;;;;;4975684;28;20185;-61
2023/10/23 08:20:10;;;;;;;0.30;0.30;;;10.30;99.90;;;;;;4967934;28;20203;-61
2023/10/23 08:22:36;;;;;;;0.30;0.30;;;10.40;99.90;;;;;;4958240;29;20172;-61
2023/10/23 08:25:02;;;;;;;0.30;0.30;;;10.40;99.90;;;;;;4957894;28;20481;-63
2023/10/23 08:27:27;;;;;;;0.30;0.30;;;10.40;99.90;;;;;;4965545;28;20823;-62
2023/10/23 08:29:53;;;;;;;0.30;0.30;;;10.30;99.90;;;;;;4977267;28;20427;-63
2023/10/23 08:32:18;;;;;;;0.30;0.30;;;10.40;99.90;;;;;;4977279;28;20185;-62
2023/10/23 08:34:44;;;;;;;0.30;0.30;;;10.60;99.90;;;;;;4976849;28;20179;-62
2023/10/23 08:37:10;;;;;;;0.30;0.20;;;10.70;99.90;;;;;;4977368;28;20183;-62
2023/10/23 08:39:37;;;;;;;0.30;0.30;;;10.80;99.90;;;;;;4977456;28;20208;-62
2023/10/23 08:42:03;;;;;;;0.40;0.40;;;10.90;99.90;;;;;;4977528;28;20512;-62
2023/10/23 08:44:29;;;;;;;0.30;0.23;;;10.90;99.90;;;;;;4975607;28;20883;-62
2023/10/23 08:46:55;;;;;;;0.37;0.37;;;11.00;99.90;;;;;;4977045;28;20420;-62
2023/10/23 08:49:20;;;;;;;0.30;0.30;;;11.10;99.90;;;;;;4977110;28;20441;-61
2023/10/23 08:51:50;;;;;;;0.30;0.30;;;11.10;99.90;;;;;;4977475;28;20605;-61
2023/10/23 08:54:17;;;;;;;0.30;0.30;;;11.10;99.90;;;;;;4976716;28;20198;-61
2023/10/23 08:56:44;;;;;;;0.30;0.20;;;11.20;99.90;;;;;;4976155;28;20438;-62
2023/10/23 08:59:11;;;;;;;0.40;0.40;;;11.10;99.90;;;;;;4977159;28;20429;-62
2023/10/23 09:01:37;;;;;;;0.30;0.30;;;11.10;99.90;;;;;;4976264;28;20430;-62
2023/10/23 09:04:03;;;;;;;0.30;0.20;;;11.20;99.90;;;;;;4976706;28;20410;-61
2023/10/23 09:06:28;;;;;;;0.30;0.30;;;11.30;99.90;;;;;;4976971;28;20540;-62
2023/10/23 09:08:54;;;;;;;0.33;0.33;;;11.30;99.90;;;;;;4975874;28;20963;-62
2023/10/23 09:11:22;;;;;;;0.30;0.20;;;11.30;99.90;;;;;;4977002;28;20229;-62
2023/10/23 09:13:48;;;;;;;0.30;0.30;;;11.40;99.90;;;;;;4976756;28;20430;-62
2023/10/23 09:16:14;;;;;;;0.30;0.30;;;11.50;99.90;;;;;;4976637;28;20449;-62
2023/10/23 09:18:49;;;;;;;0.30;0.30;;;11.60;99.90;;;;;;4976965;28;20734;-62
2023/10/23 09:21:15;;;;;;;0.30;0.30;;;11.70;99.90;;;;;;4976754;28;20211;-62
2023/10/23 09:23:55;;;;;;;0.30;0.30;;;11.80;99.90;;;;;;4976894;28;20423;-62
2023/10/23 09:26:22;;;;;;;0.30;0.30;;;11.90;99.90;;;;;;4976412;28;20469;-62
2023/10/23 09:28:49;;;;;;;0.30;0.30;;;12.00;99.90;;;;;;4976816;28;20404;-62
2023/10/23 09:31:16;;;;;;;0.30;0.30;;;12.10;99.90;;;;;;4976240;28;20434;-63
2023/10/23 09:33:46;;;;;;;3.70;1.83;;;12.00;99.90;;;;;;4976431;28;20448;-63
2023/10/23 09:36:15;;;;;;;0.50;0.50;;;12.00;99.90;;;;;;4976379;28;20821;-63
2023/10/23 09:38:56;;;;;;;0.40;0.40;;;11.90;99.90;;;;;;4976255;28;20418;-60
2023/10/23 09:41:22;;;;;;;0.30;0.30;;;12.00;99.90;;;;;;4976512;28;20445;-61
2023/10/23 09:43:50;;;;;;;0.33;0.33;;;12.10;99.90;;;;;;4975952;28;20875;-63
2023/10/23 09:46:19;;;;;;;0.40;0.40;;;12.10;99.90;;;;;;4975783;28;20282;-62
2023/10/23 09:48:45;;;;;;;0.30;0.30;;;12.20;99.90;;;;;;4976445;28;20392;-62
2023/10/23 09:51:14;;;;;;;0.30;0.30;;;12.20;99.90;;;;;;4976084;28;20399;-62
2023/10/23 09:53:47;;;;;;;0.30;0.20;;;12.20;99.90;;;;;;4975839;28;20407;-64
2023/10/23 09:56:19;;;;;;;0.30;0.30;;;12.20;99.90;;;;;;4976112;28;20516;-62
2023/10/23 09:58:49;;;;;;;0.30;0.30;;;12.20;99.90;;;;;;4976020;28;20402;-61
2023/10/23 10:01:18;;;;;;;0.30;0.30;;;12.20;99.90;;;;;;4975730;28;20828;-62
2023/10/23 10:03:45;;;;;;;0.30;0.30;;;12.20;99.90;;;;;;4975662;28;20402;-61
2023/10/23 10:06:17;;;;;;;0.30;0.20;;;12.20;99.90;;;;;;4975297;28;20808;-62
2023/10/23 10:08:49;;;;;;;0.30;0.30;;;12.20;99.90;;;;;;4975979;28;20415;-61
2023/10/23 10:11:16;;;;;;;0.30;0.30;;;12.10;99.90;;;;;;4975953;28;20440;-62
2023/10/23 10:13:42;;;;;;;0.80;0.80;;;12.10;99.90;;;;;;4975303;28;20454;-63
2023/10/23 10:16:10;;;;;;;0.30;0.27;;;12.20;99.90;;;;;;4975000;28;20944;-61
2023/10/23 10:18:36;;;;;;;0.30;0.30;;;12.20;99.90;;;;;;4975658;28;20389;-62
2023/10/23 10:21:07;;;;;;;0.43;0.43;;;12.20;99.90;;;;;;4975426;28;20494;-61
2023/10/23 10:23:35;;;;;;;0.30;0.20;;;12.20;99.90;;;;;;4975453;28;20509;-61
2023/10/23 10:26:03;;;;;;;0.30;0.20;;;12.20;99.90;;;;;;4975090;28;20434;-62
2023/10/23 10:28:28;;;;;;;0.30;0.27;;;12.30;99.90;;;;;;4973971;28;20433;-62
2023/10/23 10:30:54;;;;;;;0.30;0.30;;;12.40;99.90;;;;;;4975461;28;20423;-62
2023/10/23 10:33:30;;;;;;;0.30;0.30;;;12.50;99.90;;;;;;4975187;28;20279;-62
2023/10/23 10:36:05;;;;;;;3.23;0.63;;;12.60;99.90;;;;;;4974923;28;20191;-62
2023/10/23 10:38:33;;;;;;;0.30;0.30;;;12.70;99.90;;;;;;4974992;28;20435;-62
2023/10/23 10:41:00;;;;;;;0.43;0.43;;;12.80;99.90;;;;;;4975023;28;20454;-63
2023/10/23 10:43:29;;;;;;;0.30;0.30;;;12.80;99.90;;;;;;4973871;28;20414;-62
2023/10/23 10:45:55;;;;;;;0.40;0.40;;;13.00;99.90;;;;;;4974736;28;20433;-62
2023/10/23 10:48:39;;;;;;;0.30;0.20;;;13.00;99.90;;;;;;4975231;28;20777;-61
2023/10/23 10:51:05;;;;;;;0.30;0.30;;;13.00;99.90;;;;;;4974947;28;20408;-61
2023/10/23 10:53:31;;;;;;;0.30;0.30;;;13.10;99.90;;;;;;4974782;28;20486;-61
2023/10/23 10:55:57;;;;;;;0.50;0.40;;;13.20;99.90;;;;;;4974653;28;20456;-62
2023/10/23 10:58:24;;;;;;;0.30;0.20;;;13.20;99.90;;;;;;4975018;28;20271;-61
2023/10/23 11:00:50;;;;;;;0.30;0.30;;;13.20;99.90;;;;;;4975005;28;20638;-61
2023/10/23 11:03:17;;;;;;;0.30;0.20;;;13.20;99.90;;;;;;4975039;28;20884;-61
2023/10/23 11:05:46;;;;;;;0.40;0.40;;;13.20;99.90;;;;;;4974264;28;20522;-61
2023/10/23 11:08:12;;;;;;;0.40;0.37;;;13.20;99.90;;;;;;4974641;28;20423;-62
2023/10/23 11:10:38;;;;;;;0.30;0.20;;;13.20;99.90;;;;;;4974764;28;20530;-61
2023/10/23 11:13:04;;;;;;;0.30;0.30;;;13.20;99.90;;;;;;4974929;28;20254;-62
2023/10/23 11:15:30;;;;;;;0.30;0.30;;;13.20;99.90;;;;;;4974360;28;20205;-62
2023/10/23 11:17:56;;;;;;;0.30;0.20;;;13.30;99.90;;;;;;4974265;28;20423;-62
2023/10/23 11:20:21;;;;;;;0.30;0.30;;;13.30;99.90;;;;;;4973316;28;20545;-62
2023/10/23 11:22:48;;;;;;;0.30;0.30;;;13.30;99.90;;;;;;4974351;28;20266;-62
2023/10/23 11:25:14;;;;;;;0.30;0.27;;;13.40;99.90;;;;;;4974070;28;20188;-62
2023/10/23 11:27:40;;;;;;;0.30;0.30;;;13.40;99.90;;;;;;4975055;28;20878;-62
2023/10/23 11:30:07;;;;;;;0.30;0.30;;;13.50;99.90;;;;;;4974863;28;20426;-63
2023/10/23 11:32:34;;;;;;;0.30;0.30;;;13.50;99.90;;;;;;4974704;28;20463;-62
2023/10/23 11:35:05;;;;;;;0.30;0.20;;;13.60;99.90;;;;;;4974050;28;21110;-62
2023/10/23 11:37:48;;;;;;;0.30;0.30;;;13.60;99.90;;;;;;4974369;28;20426;-62
2023/10/23 11:40:20;;;;;;;0.30;0.20;;;13.70;99.90;;;;;;4974538;28;20506;-61
2023/10/23 11:42:55;;;;;;;0.30;0.30;;;13.60;99.90;;;;;;4974607;28;20435;-61
2023/10/23 11:45:21;;;;;;;0.40;0.40;;;13.60;99.90;;;;;;4974046;28;21418;-61
2023/10/23 11:47:51;;;;;;;0.30;0.30;;;13.70;99.90;;;;;;4974651;28;20404;-62
2023/10/23 11:50:17;;;;;;;0.30;0.30;;;13.70;99.90;;;;;;4974702;28;20415;-62
2023/10/23 11:52:44;;;;;;;0.30;0.30;;;13.80;99.90;;;;;;4974073;28;20427;-62
2023/10/23 11:55:13;;;;;;;0.30;0.30;;;13.90;99.90;;;;;;4972820;28;20466;-62
2023/10/23 11:57:50;;;;;;;0.30;0.30;;;13.90;99.90;;;;;;4974375;28;20985;-62
2023/10/23 12:00:16;;;;;;;0.40;0.30;;;13.90;99.90;;;;;;4972888;28;20505;-62
2023/10/23 12:02:44;;;;;;;0.30;0.30;;;14.00;99.90;;;;;;4974306;28;20758;-62
2023/10/23 12:05:12;;;;;;;0.30;0.30;;;14.10;99.90;;;;;;4973719;28;20855;-62
2023/10/23 12:07:49;;;;;;;0.30;0.30;;;14.10;99.90;;;;;;4973894;28;20439;-61
2023/10/23 12:10:19;;;;;;;0.30;0.20;;;14.20;99.90;;;;;;4974402;28;20390;-62
2023/10/23 12:12:45;;;;;;;0.40;0.40;;;14.20;99.90;;;;;;4974462;28;20763;-62
2023/10/23 12:15:12;;;;;;;0.50;0.50;;;14.30;99.90;;;;;;4973888;28;20520;-62
2023/10/23 12:17:39;;;;;;;0.90;0.90;;;14.30;99.90;;;;;;4974146;28;20427;-63
2023/10/23 12:20:09;;;;;;;0.30;0.20;;;14.30;99.90;;;;;;4973983;28;20475;-63
2023/10/23 12:22:37;;;;;;;0.57;0.57;;;14.40;99.90;;;;;;4974186;28;20408;-62
2023/10/23 12:25:04;;;;;;;0.30;0.30;;;14.30;99.90;;;;;;4972857;28;20926;-63
2023/10/23 12:27:34;;;;;;;0.30;0.30;;;14.30;99.90;;;;;;4973568;28;20424;-62
2023/10/23 12:30:04;;;;;;;0.30;0.27;;;14.30;99.90;;;;;;4974981;28;20913;-62
2023/10/23 12:32:31;;;;;;;0.30;0.30;;;14.30;99.90;;;;;;4975705;28;20427;-61
2023/10/23 12:34:57;;;;;;;0.30;0.30;;;14.30;99.90;;;;;;4976916;28;20557;-62
2023/10/23 12:37:30;;;;;;;0.30;0.30;;;14.30;99.90;;;;;;4977111;28;20423;-62
2023/10/23 12:39:57;;;;;;;0.30;0.30;;;14.30;99.90;;;;;;4977579;28;20553;-62
2023/10/23 12:42:23;;;;;;;0.67;0.67;;;14.20;99.90;;;;;;4977276;28;20415;-63
2023/10/23 12:44:49;;;;;;;1.07;0.97;;;14.20;99.90;;;;;;4977014;28;20825;-62
2023/10/23 12:47:15;;;;;;;0.30;0.30;;;14.20;99.90;;;;;;4976836;28;20523;-62
2023/10/23 12:49:42;;;;;;;0.30;0.20;;;14.30;99.90;;;;;;4977167;28;20463;-62
2023/10/23 12:52:08;;;;;;;0.30;0.30;;;14.30;99.90;;;;;;4977115;28;20474;-62
2023/10/23 12:54:34;;;;;;;0.30;0.30;;;14.40;99.90;;;;;;4967800;28;20808;-62
2023/10/23 12:56:59;;;;;;;0.30;0.30;;;14.40;99.90;;;;;;4961804;28;20471;-62
2023/10/23 12:59:25;;;;;;;0.70;0.70;;;14.40;99.90;;;;;;4968667;28;20611;-62
2023/10/23 13:01:51;;;;;;;0.30;0.30;;;14.30;99.90;;;;;;4976898;28;20271;-62
2023/10/23 13:04:21;;;;;;;0.30;0.30;;;14.30;99.90;;;;;;4975944;28;20255;-62
2023/10/23 13:06:49;;;;;;;0.30;0.30;;;14.30;99.90;;;;;;4975441;28;20527;-62
2023/10/23 13:09:15;;;;;;;0.30;0.30;;;14.30;99.90;;;;;;4975744;28;20433;-61
2023/10/23 13:11:42;;;;;;;0.30;0.20;;;14.30;99.90;;;;;;4976533;28;20411;-61
2023/10/23 13:14:07;;;;;;;0.30;0.30;;;14.30;99.90;;;;;;4976554;28;20184;-62
2023/10/23 13:16:33;;;;;;;0.50;0.50;;;14.20;99.90;;;;;;4976517;28;20443;-62
2023/10/23 13:18:59;;;;;;;1.83;0.50;;;14.10;99.90;;;;;;4977122;28;20173;-62
2023/10/23 13:21:24;;;;;;;0.30;0.30;;;14.10;99.90;;;;;;4977764;28;20635;-61
2023/10/23 13:23:50;;;;;;;0.70;0.63;;;14.10;99.90;;;;;;4976800;28;20532;-61
2023/10/23 13:26:17;;;;;;;0.30;0.20;;;14.00;99.90;;;;;;4976719;28;20192;-61
2023/10/23 13:28:43;;;;;;;0.30;0.30;;;14.00;99.90;;;;;;4976361;28;20181;-62
2023/10/23 13:31:09;;;;;;;0.30;0.20;;;14.00;99.90;;;;;;4976427;28;20460;-61
2023/10/23 13:33:34;;;;;;;0.30;0.30;;;14.10;99.90;;;;;;4974762;28;20390;-62
2023/10/23 13:36:00;;;;;;;0.30;0.30;;;14.00;99.90;;;;;;4976135;28;20216;-61
2023/10/23 13:38:26;;;;;;;0.70;0.70;;;14.10;99.90;;;;;;4976622;28;20204;-61
2023/10/23 13:40:52;;;;;;;0.30;0.20;;;14.00;99.90;;;;;;4976245;28;20196;-61
2023/10/23 13:43:17;;;;;;;0.30;0.30;;;14.00;99.90;;;;;;4976911;28;20171;-61
2023/10/23 13:45:43;;;;;;;0.90;0.77;;;14.00;99.90;;;;;;4981579;28;20609;-62
2023/10/23 13:48:09;;;;;;;0.40;0.40;;;13.90;99.90;;;;;;4982703;28;20415;-62
2023/10/23 13:50:35;;;;;;;0.30;0.30;;;13.90;99.90;;;;;;4981896;28;20403;-61
2023/10/23 13:53:01;;;;;;;0.50;0.50;;;13.90;99.90;;;;;;4977389;28;20231;-62
2023/10/23 13:55:26;;;;;;;0.30;0.30;;;13.90;99.90;;;;;;4975884;28;20635;-62
2023/10/23 13:57:52;;;;;;;0.30;0.27;;;13.90;99.90;;;;;;4977842;28;20210;-62
2023/10/23 14:00:19;;;;;;;0.57;0.57;;;14.00;99.90;;;;;;4976859;28;20251;-62
2023/10/23 14:02:44;;;;;;;0.30;0.30;;;14.10;99.90;;;;;;4976607;28;20499;-63
2023/10/23 14:05:10;;;;;;;0.30;0.30;;;14.10;99.90;;;;;;4975783;28;20514;-62
2023/10/23 14:07:36;;;;;;;0.30;0.30;;;14.30;99.90;;;;;;4975475;28;20187;-61
2023/10/23 14:10:02;;;;;;;0.30;0.30;;;14.30;99.90;;;;;;4975314;28;20191;-63
2023/10/23 14:12:28;;;;;;;0.30;0.20;;;14.40;99.90;;;;;;4975725;28;20782;-63
2023/10/23 14:14:54;;;;;;;0.80;0.80;;;14.40;99.90;;;;;;4975104;28;20482;-62
2023/10/23 14:17:19;;;;;;;0.30;0.20;;;14.50;99.90;;;;;;4975539;28;20685;-62
2023/10/23 14:19:45;;;;;;;0.30;0.30;;;14.60;99.90;;;;;;4975633;28;20270;-63
2023/10/23 14:22:11;;;;;;;0.43;0.43;;;14.70;99.90;;;;;;4975613;28;20169;-62
2023/10/23 14:24:36;;;;;;;0.30;0.30;;;14.80;99.90;;;;;;4973455;28;20173;-62
2023/10/23 14:27:02;;;;;;;0.73;0.50;;;14.80;99.90;;;;;;4974011;28;20691;-62
2023/10/23 14:29:31;;;;;;;0.30;0.20;;;14.80;99.90;;;;;;4965132;28;20188;-62
2023/10/23 14:31:57;;;;;;;0.30;0.20;;;14.90;99.90;;;;;;4954014;29;20571;-62
2023/10/23 14:34:23;;;;;;;0.30;0.30;;;14.90;99.90;;;;;;4955620;29;20508;-62
2023/10/23 14:36:49;;;;;;;0.30;0.30;;;15.00;99.90;;;;;;4954309;29;20208;-62
2023/10/23 14:39:14;;;;;;;0.30;0.20;;;15.10;99.90;;;;;;4956315;28;20793;-61
2023/10/23 14:41:40;;;;;;;0.40;0.40;;;15.20;99.90;;;;;;4974870;28;20168;-62
2023/10/23 14:44:06;;;;;;;0.30;0.30;;;15.20;99.90;;;;;;4973355;28;20178;-62
2023/10/23 14:46:31;;;;;;;0.30;0.20;;;15.30;99.90;;;;;;4974843;28;20193;-62
2023/10/23 14:48:57;;;;;;;0.30;0.20;;;15.30;99.90;;;;;;4974773;28;20571;-62
2023/10/23 14:51:22;;;;;;;0.30;0.20;;;15.20;99.90;;;;;;4975038;28;20211;-62
2023/10/23 14:53:50;;;;;;;0.30;0.27;;;15.20;99.90;;;;;;4973788;28;20169;-61
2023/10/23 14:56:16;;;;;;;0.30;0.20;;;15.20;99.90;;;;;;4974187;28;20201;-63
2023/10/23 14:58:42;;;;;;;0.30;0.20;;;15.20;99.90;;;;;;4974942;28;20415;-61
2023/10/23 15:01:08;;;;;;;0.30;0.20;;;15.10;99.90;;;;;;4974411;28;20985;-64
2023/10/23 15:03:36;;;;;;;0.30;0.30;;;15.10;99.90;;;;;;4974907;28;20251;-62
2023/10/23 15:06:12;;;;;;;0.30;0.30;;;15.10;99.90;;;;;;4974226;28;20451;-61
2023/10/23 15:08:39;;;;;;;0.33;0.33;;;15.10;99.90;;;;;;4974674;28;20411;-62
2023/10/23 15:11:05;;;;;;;0.30;0.30;;;15.10;99.90;;;;;;4974316;28;20451;-62
2023/10/23 15:13:30;;;;;;;0.30;0.30;;;15.10;99.90;;;;;;4974517;28;20430;-62
2023/10/23 15:16:02;;;;;;;0.30;0.30;;;15.10;99.90;;;;;;4974110;28;20423;-61
2023/10/23 15:18:30;;;;;;;0.30;0.30;;;15.10;99.90;;;;;;4974776;28;20626;-63
2023/10/23 15:21:03;;;;;;;0.30;0.30;;;15.10;99.90;;;;;;4974623;28;20467;-62
2023/10/23 15:23:28;;;;;;;0.30;0.20;;;15.00;99.90;;;;;;4974157;28;20404;-62
2023/10/23 15:25:54;;;;;;;0.30;0.20;;;15.00;99.90;;;;;;4972804;28;20523;-61
2023/10/23 15:28:20;;;;;;;0.30;0.20;;;15.00;99.90;;;;;;4974266;28;20322;-62
2023/10/23 15:30:52;;;;;;;0.40;0.40;;;15.00;99.90;;;;;;4973438;28;20427;-62
2023/10/23 15:33:24;;;;;;;0.30;0.30;;;14.90;99.90;;;;;;4974082;28;20747;-63
2023/10/23 15:35:56;;;;;;;0.37;0.37;;;14.90;99.90;;;;;;4974005;28;20566;-62
2023/10/23 15:38:24;;;;;;;0.30;0.30;;;14.90;99.90;;;;;;4973765;28;20457;-62
2023/10/23 15:40:52;;;;;;;0.70;0.47;;;14.80;99.90;;;;;;4973901;28;20463;-62
2023/10/23 15:43:21;;;;;;;0.30;0.30;;;14.80;99.90;;;;;;4974375;28;20407;-62
2023/10/23 15:45:51;;;;;;;0.30;0.30;;;14.70;99.90;;;;;;4972690;28;20435;-62
2023/10/23 15:48:21;;;;;;;0.30;0.30;;;14.70;99.90;;;;;;4974192;28;20959;-62
2023/10/23 15:50:47;;;;;;;0.30;0.20;;;14.70;99.90;;;;;;4974528;28;20900;-63
2023/10/23 15:53:14;;;;;;;0.30;0.20;;;14.60;99.90;;;;;;4974773;28;20438;-63
2023/10/23 15:55:40;;;;;;;0.30;0.30;;;14.60;99.90;;;;;;4972494;28;20438;-62
2023/10/23 15:58:06;;;;;;;0.30;0.30;;;14.60;99.90;;;;;;4974180;28;20770;-63
2023/10/23 16:00:32;;;;;;;0.30;0.30;;;14.60;99.90;;;;;;4973634;28;20764;-61
2023/10/23 16:02:58;;;;;;;0.30;0.30;;;14.50;99.90;;;;;;4959537;28;20182;-61
2023/10/23 16:05:25;;;;;;;0.30;0.20;;;14.50;99.90;;;;;;4969025;28;20418;-62
2023/10/23 16:07:52;;;;;;;0.40;0.40;;;14.50;99.90;;;;;;4977408;28;20462;-61
2023/10/23 16:10:17;;;;;;;0.30;0.20;;;14.50;99.90;;;;;;4977901;28;20801;-62
2023/10/23 16:12:43;;;;;;;0.30;0.20;;;14.40;99.90;;;;;;4977337;28;20510;-63
2023/10/23 16:15:20;;;;;;;0.30;0.30;;;14.40;99.90;;;;;;4977717;28;20254;-62
2023/10/23 16:17:46;;;;;;;0.30;0.30;;;14.30;99.90;;;;;;4972771;28;20179;-62
2023/10/23 16:20:12;;;;;;;0.30;0.30;;;14.30;99.90;;;;;;4960457;28;20970;-62
2023/10/23 16:22:39;;;;;;;0.40;0.33;;;14.30;99.90;;;;;;4958316;28;20180;-62
2023/10/23 16:25:06;;;;;;;0.30;0.27;;;14.20;99.90;;;;;;4957997;28;20428;-62
2023/10/23 16:27:35;;;;;;;0.30;0.30;;;14.20;99.90;;;;;;4971637;28;20474;-62
2023/10/23 16:30:03;;;;;;;0.30;0.20;;;14.10;99.90;;;;;;4977266;28;20502;-62
2023/10/23 16:32:28;;;;;;;0.43;0.43;;;14.10;99.90;;;;;;4976160;28;20423;-62
2023/10/23 16:34:58;;;;;;;0.30;0.20;;;14.10;99.90;;;;;;4964557;28;20476;-61
2023/10/23 16:37:26;;;;;;;0.30;0.20;;;14.10;99.90;;;;;;4961402;28;20319;-62
2023/10/23 16:39:52;;;;;;;0.30;0.20;;;14.00;99.90;;;;;;4957907;28;20553;-63
2023/10/23 16:42:17;;;;;;;0.30;0.30;;;14.10;99.90;;;;;;4969811;28;20454;-62
2023/10/23 16:44:43;;;;;;;0.70;0.40;;;14.00;99.90;;;;;;4976584;28;20661;-62
2023/10/23 16:47:12;;;;;;;0.30;0.30;;;14.00;99.90;;;;;;4977093;28;20174;-62
2023/10/23 16:49:41;;;;;;;0.30;0.30;;;14.00;99.90;;;;;;4975813;28;20187;-62
2023/10/23 16:52:06;;;;;;;0.30;0.30;;;14.00;99.90;;;;;;4977233;28;20914;-60
2023/10/23 16:54:32;;;;;;;0.30;0.23;;;14.00;99.90;;;;;;4963109;28;20420;-62